Mc Daniels, Kentucky
Current Conditions -  °F | °C
As of 4:16 AM on Tuesday 27 Jan 2015 (Local Time) from KFTK Reporting Station
Haze Haze  
Wind Chill: 28°   Ceiling: 1500
Heat Index: 28°   Visibility: 6mi
Dew Point: 27°   Wind: 3mph
Humidity: 93%   Direction: 20°NNE
Pressure: 29.9"   Gusts: NA
Location:  37.6134°N, 86.4706°W
Report Text: KFTK 271016Z AUTO 02003KT 6SM R18/5000FT BR BKN015 OVC022 M02/M03 A2990 RMK AO2 CIG 015V021 BKN V SCT
Loading
Personal Weather Stations






























Interactive Weather Map New forecast layout! Learn more

10-Day Weather Forecast

Advertisements
Track Severe Weather on mobile